sensor_id;sensor_type;location;lat;lon;timestamp;P1;durP1;ratioP1;P2;durP2;ratioP2
15557;SDS011;7880;50.110;9.372;2023-12-20T00:00:39;1.9307692307692308;;;1.6;;
15557;SDS011;7880;50.110;9.372;2023-12-20T00:05:43;2.246153846153846;;;1.5;;
15557;SDS011;7880;50.110;9.372;2023-12-20T00:10:55;1.7615384615384615;;;1.3000000000000003;;
15557;SDS011;7880;50.110;9.372;2023-12-20T00:16:07;1.5;;;1.4;;
15557;SDS011;7880;50.110;9.372;2023-12-20T00:21:16;1.6;;;1.5;;
15557;SDS011;7880;50.110;9.372;2023-12-20T00:26:16;1.1307692307692305;;;1.0307692307692307;;
15557;SDS011;7880;50.110;9.372;2023-12-20T00:31:20;1.5;;;1.169230769230769;;
15557;SDS011;7880;50.110;9.372;2023-12-20T00:36:32;1.0999999999999999;;;0.9692307692307692;;
15557;SDS011;7880;50.110;9.372;2023-12-20T00:41:27;1.1615384615384614;;;1.0307692307692307;;
15557;SDS011;7880;50.110;9.372;2023-12-20T00:46:43;1.2384615384615385;;;1.0999999999999999;;
15557;SDS011;7880;50.110;9.372;2023-12-20T00:51:52;1.6999999999999995;;;1.3000000000000003;;
15557;SDS011;7880;50.110;9.372;2023-12-20T00:56:58;1.3000000000000003;;;1.1999999999999997;;
15557;SDS011;7880;50.110;9.372;2023-12-20T01:02:00;1.3538461538461537;;;1.2538461538461543;;
15557;SDS011;7880;50.110;9.372;2023-12-20T01:07:02;1.8999999999999997;;;1.4;;
15557;SDS011;7880;50.110;9.372;2023-12-20T01:12:06;1.3000000000000003;;;1.1999999999999997;;
15557;SDS011;7880;50.110;9.372;2023-12-20T01:17:12;2.2538461538461543;;;1.0615384615384613;;
15557;SDS011;7880;50.110;9.372;2023-12-20T01:22:17;1.6;;;1.5;;
15557;SDS011;7880;50.110;9.372;2023-12-20T01:27:18;1.5;;;1.1999999999999997;;
15557;SDS011;7880;50.110;9.372;2023-12-20T01:32:56;1.6999999999999995;;;1.3000000000000003;;
15557;SDS011;7880;50.110;9.372;2023-12-20T01:37:08;1.5384615384615385;;;1.4384615384615382;;
15557;SDS011;7880;50.110;9.372;2023-12-20T01:42:14;1.6;;;1.3000000000000003;;
15557;SDS011;7880;50.110;9.372;2023-12-20T01:47:33;1.3000000000000003;;;1.0;;
15557;SDS011;7880;50.110;9.372;2023-12-20T01:52:52;0.8;;;0.8;;
15557;SDS011;7880;50.110;9.372;2023-12-20T01:57:44;1.3000000000000003;;;1.1999999999999997;;
15557;SDS011;7880;50.110;9.372;2023-12-20T02:03:03;1.4;;;1.0999999999999999;;
15557;SDS011;7880;50.110;9.372;2023-12-20T02:07:55;1.1999999999999997;;;1.0999999999999999;;
15557;SDS011;7880;50.110;9.372;2023-12-20T02:13:21;1.5;;;1.4;;
15557;SDS011;7880;50.110;9.372;2023-12-20T02:18:48;1.8692307692307695;;;1.1999999999999997;;
15557;SDS011;7880;50.110;9.372;2023-12-20T02:24:17;1.3384615384615384;;;1.2384615384615385;;
15557;SDS011;7880;50.110;9.372;2023-12-20T02:29:21;1.5;;;1.4;;
15557;SDS011;7880;50.110;9.372;2023-12-20T02:34:28;1.1999999999999997;;;1.0999999999999999;;
15557;SDS011;7880;50.110;9.372;2023-12-20T02:39:31;1.1999999999999997;;;1.0999999999999999;;
15557;SDS011;7880;50.110;9.372;2023-12-20T02:44:41;1.4;;;1.0999999999999999;;
15557;SDS011;7880;50.110;9.372;2023-12-20T02:49:57;1.4;;;1.3000000000000003;;
15557;SDS011;7880;50.110;9.372;2023-12-20T02:55:03;1.1999999999999997;;;1.0999999999999999;;
15557;SDS011;7880;50.110;9.372;2023-12-20T03:00:25;1.3000000000000003;;;1.0999999999999999;;
15557;SDS011;7880;50.110;9.372;2023-12-20T03:05:37;1.8000000000000005;;;1.2384615384615385;;
15557;SDS011;7880;50.110;9.372;2023-12-20T03:11:04;4.36153846153846;;;1.7384615384615385;;
15557;SDS011;7880;50.110;9.372;2023-12-20T03:15:45;4.36153846153846;;;1.7384615384615385;;
15557;SDS011;7880;50.110;9.372;2023-12-20T03:21:00;2.0;;;1.530769230769231;;
15557;SDS011;7880;50.110;9.372;2023-12-20T03:26:19;1.969230769230769;;;1.8000000000000005;;
15557;SDS011;7880;50.110;9.372;2023-12-20T03:31:29;3.2692307692307705;;;1.8000000000000005;;
15557;SDS011;7880;50.110;9.372;2023-12-20T03:36:39;2.430769230769231;;;2.230769230769231;;
15557;SDS011;7880;50.110;9.372;2023-12-20T03:42:03;3.43076923076923;;;2.3000000000000003;;
15557;SDS011;7880;50.110;9.372;2023-12-20T03:47:03;2.215384615384615;;;2.0;;
15557;SDS011;7880;50.110;9.372;2023-12-20T03:52:23;1.5;;;1.4;;
15557;SDS011;7880;50.110;9.372;2023-12-20T03:57:50;4.369230769230769;;;2.0;;
15557;SDS011;7880;50.110;9.372;2023-12-20T04:03:00;3.369230769230768;;;1.6999999999999995;;
15557;SDS011;7880;50.110;9.372;2023-12-20T04:07:50;1.8000000000000005;;;1.6999999999999995;;
15557;SDS011;7880;50.110;9.372;2023-12-20T04:13:22;4.700000000000001;;;2.4461538461538463;;
15557;SDS011;7880;50.110;9.372;2023-12-20T04:18:46;2.899999999999999;;;2.361538461538461;;
15557;SDS011;7880;50.110;9.372;2023-12-20T04:23:45;4.5538461538461545;;;3.399999999999999;;
15557;SDS011;7880;50.110;9.372;2023-12-20T04:28:49;5.761538461538462;;;3.6384615384615397;;
15557;SDS011;7880;50.110;9.372;2023-12-20T04:33:54;4.638461538461538;;;4.16923076923077;;
15557;SDS011;7880;50.110;9.372;2023-12-20T04:38:54;11.0;;;5.230769230769231;;
15557;SDS011;7880;50.110;9.372;2023-12-20T04:44:30;24.353846153846153;;;5.3307692307692305;;
15557;SDS011;7880;50.110;9.372;2023-12-20T04:49:16;24.307692307692307;;;5.46923076923077;;
15557;SDS011;7880;50.110;9.372;2023-12-20T04:54:30;79.1923076923077;;;7.5;;
15557;SDS011;7880;50.110;9.372;2023-12-20T04:59:23;73.26923076923077;;;7.669230769230769;;
15557;SDS011;7880;50.110;9.372;2023-12-20T05:04:26;10.907692307692306;;;5.6692307692307695;;
15557;SDS011;7880;50.110;9.372;2023-12-20T05:09:31;89.5076923076923;;;7.99230769230769;;
15557;SDS011;7880;50.110;9.372;2023-12-20T05:14:40;92.99999999999999;;;8.638461538461538;;
15557;SDS011;7880;50.110;9.372;2023-12-20T05:19:43;55.9923076923077;;;8.261538461538464;;
15557;SDS011;7880;50.110;9.372;2023-12-20T05:25:06;44.892307692307696;;;7.9769230769230735;;
15557;SDS011;7880;50.110;9.372;2023-12-20T05:30:40;35.7;;;6.276923076923075;;
15557;SDS011;7880;50.110;9.372;2023-12-20T05:35:33;10.038461538461538;;;6.4;;
15557;SDS011;7880;50.110;9.372;2023-12-20T05:40:25;10.738461538461538;;;7.299999999999998;;
15557;SDS011;7880;50.110;9.372;2023-12-20T05:45:30;8.93846153846154;;;5.5;;
15557;SDS011;7880;50.110;9.372;2023-12-20T05:50:47;6.830769230769231;;;5.3307692307692305;;
15557;SDS011;7880;50.110;9.372;2023-12-20T05:56:17;5.1692307692307695;;;4.200000000000001;;
15557;SDS011;7880;50.110;9.372;2023-12-20T06:01:14;5.761538461538462;;;4.299999999999999;;
15557;SDS011;7880;50.110;9.372;2023-12-20T06:06:45;8.969230769230771;;;5.6;;
15557;SDS011;7880;50.110;9.372;2023-12-20T06:11:41;6.030769230769229;;;5.192307692307693;;
15557;SDS011;7880;50.110;9.372;2023-12-20T06:16:51;10.776923076923081;;;5.676923076923076;;
15557;SDS011;7880;50.110;9.372;2023-12-20T06:21:53;10.976923076923073;;;6.5;;
15557;SDS011;7880;50.110;9.372;2023-12-20T06:27:12;12.061538461538458;;;7.200000000000002;;
15557;SDS011;7880;50.110;9.372;2023-12-20T06:32:14;11.484615384615385;;;6.761538461538462;;
15557;SDS011;7880;50.110;9.372;2023-12-20T06:37:17;15.400000000000004;;;8.976923076923075;;
15557;SDS011;7880;50.110;9.372;2023-12-20T06:42:25;14.023076923076925;;;8.269230769230766;;
15557;SDS011;7880;50.110;9.372;2023-12-20T06:47:27;11.176923076923076;;;5.299999999999999;;
15557;SDS011;7880;50.110;9.372;2023-12-20T06:52:41;8.623076923076924;;;5.0;;
15557;SDS011;7880;50.110;9.372;2023-12-20T06:57:40;13.484615384615388;;;7.200000000000002;;
15557;SDS011;7880;50.110;9.372;2023-12-20T07:02:43;6.6230769230769235;;;4.661538461538462;;
15557;SDS011;7880;50.110;9.372;2023-12-20T07:07:51;6.4;;;3.899999999999999;;
15557;SDS011;7880;50.110;9.372;2023-12-20T07:13:08;9.299999999999999;;;4.8999999999999995;;
15557;SDS011;7880;50.110;9.372;2023-12-20T07:18:23;7.307692307692306;;;3.5;;
15557;SDS011;7880;50.110;9.372;2023-12-20T07:23:29;10.846153846153843;;;4.0;;
15557;SDS011;7880;50.110;9.372;2023-12-20T07:28:35;3.561538461538462;;;3.100000000000001;;
15557;SDS011;7880;50.110;9.372;2023-12-20T07:33:35;10.992307692307694;;;3.2999999999999994;;
15557;SDS011;7880;50.110;9.372;2023-12-20T07:38:44;5.6;;;2.838461538461538;;
15557;SDS011;7880;50.110;9.372;2023-12-20T07:43:45;5.6;;;3.7000000000000006;;
15557;SDS011;7880;50.110;9.372;2023-12-20T07:48:49;4.938461538461538;;;3.399999999999999;;
15557;SDS011;7880;50.110;9.372;2023-12-20T07:53:54;9.384615384615385;;;3.0;;
15557;SDS011;7880;50.110;9.372;2023-12-20T07:59:04;6.576923076923078;;;2.3999999999999995;;
15557;SDS011;7880;50.110;9.372;2023-12-20T08:04:00;7.0;;;2.538461538461539;;
15557;SDS011;7880;50.110;9.372;2023-12-20T08:09:08;5.923076923076922;;;2.661538461538462;;
15557;SDS011;7880;50.110;9.372;2023-12-20T08:14:08;7.761538461538461;;;2.6000000000000005;;
15557;SDS011;7880;50.110;9.372;2023-12-20T08:19:14;7.507692307692308;;;2.5;;
15557;SDS011;7880;50.110;9.372;2023-12-20T08:24:20;4.5;;;2.030769230769231;;
15557;SDS011;7880;50.110;9.372;2023-12-20T08:29:18;5.023076923076924;;;2.7;;
15557;SDS011;7880;50.110;9.372;2023-12-20T08:34:28;5.823076923076924;;;2.3000000000000003;;
15557;SDS011;7880;50.110;9.372;2023-12-20T08:39:33;6.084615384615386;;;2.8615384615384607;;
15557;SDS011;7880;50.110;9.372;2023-12-20T08:44:31;7.446153846153848;;;2.3615384615384616;;
15557;SDS011;7880;50.110;9.372;2023-12-20T08:49:37;9.030769230769229;;;2.1769230769230763;;
15557;SDS011;7880;50.110;9.372;2023-12-20T08:54:37;9.246153846153847;;;3.899999999999999;;
15557;SDS011;7880;50.110;9.372;2023-12-20T08:59:57;4.86153846153846;;;2.1999999999999997;;
15557;SDS011;7880;50.110;9.372;2023-12-20T09:04:50;6.976923076923078;;;2.3000000000000003;;
15557;SDS011;7880;50.110;9.372;2023-12-20T09:09:56;7.799999999999998;;;3.7384615384615367;;
15557;SDS011;7880;50.110;9.372;2023-12-20T09:14:57;4.753846153846154;;;2.230769230769231;;
15557;SDS011;7880;50.110;9.372;2023-12-20T09:20:00;10.461538461538462;;;2.8769230769230774;;
15557;SDS011;7880;50.110;9.372;2023-12-20T09:24:59;7.846153846153844;;;2.5615384615384618;;
15557;SDS011;7880;50.110;9.372;2023-12-20T09:30:14;10.446153846153845;;;2.338461538461538;;
15557;SDS011;7880;50.110;9.372;2023-12-20T09:35:16;8.353846153846156;;;3.899999999999999;;
15557;SDS011;7880;50.110;9.372;2023-12-20T09:40:15;4.538461538461539;;;3.100000000000001;;
15557;SDS011;7880;50.110;9.372;2023-12-20T09:45:16;5.215384615384616;;;2.3999999999999995;;
15557;SDS011;7880;50.110;9.372;2023-12-20T09:50:27;7.823076923076924;;;2.3999999999999995;;
15557;SDS011;7880;50.110;9.372;2023-12-20T09:55:28;13.369230769230775;;;3.100000000000001;;
15557;SDS011;7880;50.110;9.372;2023-12-20T10:00:31;3.5;;;3.2;;
15557;SDS011;7880;50.110;9.372;2023-12-20T10:05:37;5.584615384615386;;;2.0;;
15557;SDS011;7880;50.110;9.372;2023-12-20T10:10:37;11.915384615384614;;;2.8;;
15557;SDS011;7880;50.110;9.372;2023-12-20T10:15:49;6.246153846153847;;;2.830769230769231;;
15557;SDS011;7880;50.110;9.372;2023-12-20T10:20:44;6.192307692307692;;;2.1000000000000005;;
15557;SDS011;7880;50.110;9.372;2023-12-20T10:25:55;8.030769230769229;;;2.330769230769231;;
15557;SDS011;7880;50.110;9.372;2023-12-20T10:31:02;10.284615384615384;;;2.4384615384615382;;
15557;SDS011;7880;50.110;9.372;2023-12-20T10:36:20;5.1692307692307695;;;2.8692307692307684;;
15557;SDS011;7880;50.110;9.372;2023-12-20T10:41:09;5.1692307692307695;;;2.8692307692307684;;
15557;SDS011;7880;50.110;9.372;2023-12-20T10:46:14;8.792307692307691;;;4.33076923076923;;
15557;SDS011;7880;50.110;9.372;2023-12-20T10:51:18;13.769230769230772;;;2.5;;
15557;SDS011;7880;50.110;9.372;2023-12-20T10:56:32;11.384615384615385;;;2.430769230769231;;
15557;SDS011;7880;50.110;9.372;2023-12-20T11:01:28;2.7307692307692313;;;2.1000000000000005;;
15557;SDS011;7880;50.110;9.372;2023-12-20T11:06:40;4.415384615384616;;;2.2769230769230764;;
15557;SDS011;7880;50.110;9.372;2023-12-20T11:11:45;7.276923076923077;;;2.1000000000000005;;
15557;SDS011;7880;50.110;9.372;2023-12-20T11:16:40;5.1000000000000005;;;2.330769230769231;;
15557;SDS011;7880;50.110;9.372;2023-12-20T11:21:42;6.900000000000001;;;2.230769230769231;;
15557;SDS011;7880;50.110;9.372;2023-12-20T11:26:46;4.907692307692309;;;2.7692307692307705;;
15557;SDS011;7880;50.110;9.372;2023-12-20T11:32:02;14.14615384615385;;;5.4;;
15557;SDS011;7880;50.110;9.372;2023-12-20T11:36:58;12.815384615384618;;;3.469230769230769;;
15557;SDS011;7880;50.110;9.372;2023-12-20T11:42:03;5.269230769230769;;;3.06923076923077;;
15557;SDS011;7880;50.110;9.372;2023-12-20T11:47:03;7.299999999999998;;;4.200000000000001;;
15557;SDS011;7880;50.110;9.372;2023-12-20T11:51:40;13.646153846153844;;;4.23076923076923;;
15557;SDS011;7880;50.110;9.372;2023-12-20T11:56:41;8.900000000000002;;;3.161538461538461;;
15557;SDS011;7880;50.110;9.372;2023-12-20T12:01:48;9.123076923076924;;;3.399999999999999;;
15557;SDS011;7880;50.110;9.372;2023-12-20T12:06:49;10.484615384615383;;;2.7307692307692295;;
15557;SDS011;7880;50.110;9.372;2023-12-20T12:11:51;10.276923076923076;;;3.43076923076923;;
15557;SDS011;7880;50.110;9.372;2023-12-20T12:16:56;8.676923076923076;;;2.899999999999999;;
15557;SDS011;7880;50.110;9.372;2023-12-20T12:22:04;12.04615384615385;;;3.2;;
15557;SDS011;7880;50.110;9.372;2023-12-20T12:27:13;5.06923076923077;;;2.8692307692307684;;
15557;SDS011;7880;50.110;9.372;2023-12-20T12:32:15;7.953846153846152;;;2.261538461538462;;
15557;SDS011;7880;50.110;9.372;2023-12-20T12:37:13;9.876923076923076;;;2.7;;
15557;SDS011;7880;50.110;9.372;2023-12-20T12:42:28;7.369230769230768;;;2.430769230769231;;
15557;SDS011;7880;50.110;9.372;2023-12-20T12:47:20;9.276923076923076;;;3.0;;
15557;SDS011;7880;50.110;9.372;2023-12-20T12:52:24;8.207692307692307;;;2.3999999999999995;;
15557;SDS011;7880;50.110;9.372;2023-12-20T12:57:25;5.130769230769232;;;2.1307692307692307;;
15557;SDS011;7880;50.110;9.372;2023-12-20T13:02:34;12.099999999999996;;;2.5538461538461537;;
15557;SDS011;7880;50.110;9.372;2023-12-20T13:07:32;14.70769230769231;;;7.299999999999998;;
15557;SDS011;7880;50.110;9.372;2023-12-20T13:12:37;8.846153846153847;;;3.43076923076923;;
15557;SDS011;7880;50.110;9.372;2023-12-20T13:17:40;10.49230769230769;;;3.361538461538461;;
15557;SDS011;7880;50.110;9.372;2023-12-20T13:22:44;9.961538461538462;;;2.9615384615384617;;
15557;SDS011;7880;50.110;9.372;2023-12-20T13:27:47;9.007692307692306;;;4.1000000000000005;;
15557;SDS011;7880;50.110;9.372;2023-12-20T13:32:57;9.723076923076924;;;4.269230769230769;;
15557;SDS011;7880;50.110;9.372;2023-12-20T13:37:56;6.976923076923078;;;3.469230769230769;;
15557;SDS011;7880;50.110;9.372;2023-12-20T13:42:58;5.307692307692306;;;2.7692307692307705;;
15557;SDS011;7880;50.110;9.372;2023-12-20T13:48:01;7.63846153846154;;;2.7307692307692295;;
15557;SDS011;7880;50.110;9.372;2023-12-20T13:53:11;11.576923076923073;;;2.1999999999999997;;
15557;SDS011;7880;50.110;9.372;2023-12-20T13:58:07;7.330769230769231;;;3.100000000000001;;
15557;SDS011;7880;50.110;9.372;2023-12-20T14:03:16;7.992307692307692;;;3.4615384615384617;;
15557;SDS011;7880;50.110;9.372;2023-12-20T14:08:14;5.969230769230771;;;2.7307692307692295;;
15557;SDS011;7880;50.110;9.372;2023-12-20T14:13:17;11.384615384615385;;;2.7692307692307705;;
15557;SDS011;7880;50.110;9.372;2023-12-20T14:18:20;7.0;;;2.161538461538462;;
15557;SDS011;7880;50.110;9.372;2023-12-20T14:23:25;5.369230769230768;;;2.899999999999999;;
15557;SDS011;7880;50.110;9.372;2023-12-20T14:28:27;9.153846153846155;;;3.0923076923076915;;
15557;SDS011;7880;50.110;9.372;2023-12-20T14:33:37;14.815384615384618;;;3.899999999999999;;
15557;SDS011;7880;50.110;9.372;2023-12-20T14:38:35;6.707692307692307;;;2.7692307692307705;;
15557;SDS011;7880;50.110;9.372;2023-12-20T14:43:39;7.10769230769231;;;2.7692307692307705;;
15557;SDS011;7880;50.110;9.372;2023-12-20T14:48:43;6.161538461538464;;;4.1000000000000005;;
15557;SDS011;7880;50.110;9.372;2023-12-20T14:53:47;17.161538461538463;;;9.192307692307692;;
15557;SDS011;7880;50.110;9.372;2023-12-20T14:58:52;6.10769230769231;;;3.369230769230768;;
15557;SDS011;7880;50.110;9.372;2023-12-20T15:03:53;9.900000000000002;;;4.799999999999999;;
15557;SDS011;7880;50.110;9.372;2023-12-20T15:08:57;12.16923076923077;;;4.299999999999999;;
15557;SDS011;7880;50.110;9.372;2023-12-20T15:14:04;9.607692307692309;;;4.569230769230769;;
15557;SDS011;7880;50.110;9.372;2023-12-20T15:19:06;7.800000000000001;;;2.5;;
15557;SDS011;7880;50.110;9.372;2023-12-20T15:24:14;8.346153846153847;;;2.469230769230769;;
15557;SDS011;7880;50.110;9.372;2023-12-20T15:29:12;7.753846153846155;;;3.030769230769231;;
15557;SDS011;7880;50.110;9.372;2023-12-20T15:34:18;37.207692307692305;;;18.276923076923076;;
15557;SDS011;7880;50.110;9.372;2023-12-20T15:39:19;27.77692307692308;;;11.06153846153846;;
15557;SDS011;7880;50.110;9.372;2023-12-20T15:44:22;11.876923076923076;;;3.0;;
15557;SDS011;7880;50.110;9.372;2023-12-20T15:49:29;8.476923076923077;;;3.0;;
15557;SDS011;7880;50.110;9.372;2023-12-20T15:54:37;10.469230769230771;;;4.0307692307692315;;
15557;SDS011;7880;50.110;9.372;2023-12-20T15:59:38;5.607692307692309;;;2.7692307692307705;;
15557;SDS011;7880;50.110;9.372;2023-12-20T16:04:37;14.169230769230769;;;3.6692307692307695;;
15557;SDS011;7880;50.110;9.372;2023-12-20T16:09:41;6.838461538461539;;;2.7307692307692295;;
15557;SDS011;7880;50.110;9.372;2023-12-20T16:14:44;4.799999999999999;;;2.1999999999999997;;
15557;SDS011;7880;50.110;9.372;2023-12-20T16:19:51;7.546153846153848;;;2.338461538461538;;
15557;SDS011;7880;50.110;9.372;2023-12-20T16:24:52;6.776923076923077;;;2.1000000000000005;;
15557;SDS011;7880;50.110;9.372;2023-12-20T16:30:06;6.407692307692309;;;1.6692307692307695;;
15557;SDS011;7880;50.110;9.372;2023-12-20T16:35:03;3.7692307692307705;;;2.3999999999999995;;
15557;SDS011;7880;50.110;9.372;2023-12-20T16:40:05;6.469230769230771;;;2.3999999999999995;;
15557;SDS011;7880;50.110;9.372;2023-12-20T16:45:09;6.653846153846154;;;2.3000000000000003;;
15557;SDS011;7880;50.110;9.372;2023-12-20T16:50:15;7.507692307692308;;;3.100000000000001;;
15557;SDS011;7880;50.110;9.372;2023-12-20T16:53:52;7.1769230769230745;;;4.299999999999999;;
15557;SDS011;7880;50.110;9.372;2023-12-20T16:58:54;21.60769230769231;;;12.7;;
15557;SDS011;7880;50.110;9.372;2023-12-20T17:03:55;33.599999999999994;;;20.561538461538458;;
15557;SDS011;7880;50.110;9.372;2023-12-20T17:09:12;10.923076923076918;;;5.730769230769231;;
15557;SDS011;7880;50.110;9.372;2023-12-20T17:14:04;20.830769230769235;;;12.3;;
15557;SDS011;7880;50.110;9.372;2023-12-20T17:19:07;11.27692307692308;;;3.399999999999999;;
15557;SDS011;7880;50.110;9.372;2023-12-20T17:24:10;6.938461538461538;;;2.6000000000000005;;
15557;SDS011;7880;50.110;9.372;2023-12-20T17:29:14;4.938461538461538;;;1.6999999999999995;;
15557;SDS011;7880;50.110;9.372;2023-12-20T17:34:18;7.60769230769231;;;2.8;;
15557;SDS011;7880;50.110;9.372;2023-12-20T17:39:22;4.061538461538462;;;2.0;;
15557;SDS011;7880;50.110;9.372;2023-12-20T17:44:30;10.376923076923076;;;2.5;;
15557;SDS011;7880;50.110;9.372;2023-12-20T17:49:35;8.038461538461537;;;2.961538461538461;;
15557;SDS011;7880;50.110;9.372;2023-12-20T17:54:36;9.561538461538461;;;3.261538461538461;;
15557;SDS011;7880;50.110;9.372;2023-12-20T17:59:41;7.761538461538462;;;2.5;;
15557;SDS011;7880;50.110;9.372;2023-12-20T18:04:45;6.176923076923078;;;3.130769230769232;;
15557;SDS011;7880;50.110;9.372;2023-12-20T18:09:56;10.63846153846154;;;3.5;;
15557;SDS011;7880;50.110;9.372;2023-12-20T18:14:53;8.77692307692308;;;2.899999999999999;;
15557;SDS011;7880;50.110;9.372;2023-12-20T18:19:54;11.2;;;3.3307692307692305;;
15557;SDS011;7880;50.110;9.372;2023-12-20T18:25:01;5.692307692307694;;;3.0;;
15557;SDS011;7880;50.110;9.372;2023-12-20T18:30:06;7.207692307692307;;;4.8999999999999995;;
15557;SDS011;7880;50.110;9.372;2023-12-20T18:35:08;9.807692307692308;;;4.630769230769232;;
15557;SDS011;7880;50.110;9.372;2023-12-20T18:40:14;7.546153846153843;;;3.2692307692307705;;
15557;SDS011;7880;50.110;9.372;2023-12-20T18:45:20;7.238461538461536;;;2.5;;
15557;SDS011;7880;50.110;9.372;2023-12-20T18:50:18;16.430769230769236;;;3.661538461538462;;
15557;SDS011;7880;50.110;9.372;2023-12-20T18:55:28;8.076923076923077;;;3.2999999999999994;;
15557;SDS011;7880;50.110;9.372;2023-12-20T19:00:36;11.83076923076923;;;4.700000000000001;;
15557;SDS011;7880;50.110;9.372;2023-12-20T19:05:29;9.246153846153847;;;4.938461538461538;;
15557;SDS011;7880;50.110;9.372;2023-12-20T19:10:34;5.299999999999999;;;3.338461538461538;;
15557;SDS011;7880;50.110;9.372;2023-12-20T19:15:36;10.946153846153843;;;3.600000000000001;;
15557;SDS011;7880;50.110;9.372;2023-12-20T19:20:41;14.484615384615385;;;3.6692307692307695;;
15557;SDS011;7880;50.110;9.372;2023-12-20T19:25:43;8.599999999999998;;;3.399999999999999;;
15557;SDS011;7880;50.110;9.372;2023-12-20T19:30:54;5.869230769230768;;;3.100000000000001;;
15557;SDS011;7880;50.110;9.372;2023-12-20T19:36:34;13.492307692307689;;;4.3999999999999995;;
15557;SDS011;7880;50.110;9.372;2023-12-20T19:41:14;14.984615384615385;;;3.530769230769231;;
15557;SDS011;7880;50.110;9.372;2023-12-20T19:46:49;12.169230769230769;;;5.376923076923077;;
15557;SDS011;7880;50.110;9.372;2023-12-20T19:51:37;11.153846153846153;;;5.153846153846154;;
15557;SDS011;7880;50.110;9.372;2023-12-20T19:56:47;10.476923076923075;;;4.269230769230769;;
15557;SDS011;7880;50.110;9.372;2023-12-20T20:01:45;9.276923076923076;;;4.96923076923077;;
15557;SDS011;7880;50.110;9.372;2023-12-20T20:06:47;10.307692307692308;;;4.1000000000000005;;
15557;SDS011;7880;50.110;9.372;2023-12-20T20:11:51;8.707692307692309;;;4.1000000000000005;;
15557;SDS011;7880;50.110;9.372;2023-12-20T20:17:25;7.507692307692308;;;4.569230769230769;;
15557;SDS011;7880;50.110;9.372;2023-12-20T20:22:30;9.376923076923076;;;4.369230769230769;;
15557;SDS011;7880;50.110;9.372;2023-12-20T20:27:22;13.300000000000002;;;7.661538461538461;;
15557;SDS011;7880;50.110;9.372;2023-12-20T20:32:27;6.89230769230769;;;4.1000000000000005;;
15557;SDS011;7880;50.110;9.372;2023-12-20T20:37:39;11.084615384615386;;;5.261538461538462;;
15557;SDS011;7880;50.110;9.372;2023-12-20T20:42:47;8.423076923076922;;;4.5;;
15557;SDS011;7880;50.110;9.372;2023-12-20T20:48:14;8.407692307692308;;;5.369230769230768;;
15557;SDS011;7880;50.110;9.372;2023-12-20T20:53:29;12.430769230769235;;;5.6923076923076925;;
15557;SDS011;7880;50.110;9.372;2023-12-20T20:58:40;12.576923076923082;;;8.36923076923077;;
15557;SDS011;7880;50.110;9.372;2023-12-20T21:03:49;9.376923076923076;;;7.169230769230769;;
15557;SDS011;7880;50.110;9.372;2023-12-20T21:08:47;14.330769230769228;;;7.246153846153847;;
15557;SDS011;7880;50.110;9.372;2023-12-20T21:13:55;13.21538461538462;;;10.43846153846154;;
15557;SDS011;7880;50.110;9.372;2023-12-20T21:19:03;33.415384615384625;;;22.184615384615384;;
15557;SDS011;7880;50.110;9.372;2023-12-20T21:24:13;19.438461538461542;;;12.89230769230769;;
15557;SDS011;7880;50.110;9.372;2023-12-20T21:29:12;40.65384615384615;;;21.469230769230766;;
15557;SDS011;7880;50.110;9.372;2023-12-20T21:34:12;18.876923076923074;;;13.923076923076918;;
15557;SDS011;7880;50.110;9.372;2023-12-20T21:39:27;10.038461538461538;;;7.392307692307692;;
15557;SDS011;7880;50.110;9.372;2023-12-20T21:44:32;12.807692307692308;;;8.669230769230769;;
15557;SDS011;7880;50.110;9.372;2023-12-20T21:49:52;5.838461538461539;;;4.469230769230769;;
15557;SDS011;7880;50.110;9.372;2023-12-20T21:55:00;11.269230769230765;;;6.369230769230768;;
15557;SDS011;7880;50.110;9.372;2023-12-20T22:00:27;9.023076923076925;;;5.938461538461538;;
15557;SDS011;7880;50.110;9.372;2023-12-20T22:05:25;6.43076923076923;;;4.869230769230769;;
15557;SDS011;7880;50.110;9.372;2023-12-20T22:10:26;9.607692307692309;;;3.899999999999999;;
15557;SDS011;7880;50.110;9.372;2023-12-20T22:15:31;5.723076923076923;;;3.7307692307692295;;
15557;SDS011;7880;50.110;9.372;2023-12-20T22:20:33;7.13076923076923;;;3.630769230769232;;
15557;SDS011;7880;50.110;9.372;2023-12-20T22:25:37;10.123076923076923;;;3.83076923076923;;
15557;SDS011;7880;50.110;9.372;2023-12-20T22:30:41;5.3307692307692305;;;3.9615384615384617;;
15557;SDS011;7880;50.110;9.372;2023-12-20T22:36:24;8.546153846153848;;;4.06923076923077;;
15557;SDS011;7880;50.110;9.372;2023-12-20T22:41:29;10.36923076923077;;;3.7999999999999994;;
15557;SDS011;7880;50.110;9.372;2023-12-20T22:46:30;11.246153846153849;;;4.3999999999999995;;
15557;SDS011;7880;50.110;9.372;2023-12-20T22:51:35;5.307692307692306;;;3.869230769230768;;
15557;SDS011;7880;50.110;9.372;2023-12-20T22:56:41;10.946153846153843;;;4.06923076923077;;